createdAt,value
2023-05-11T00:01:59.537Z,82.85
2023-05-11T00:07:00.444Z,82.89
2023-05-11T00:12:01.700Z,83.55
2023-05-11T00:17:03.718Z,83.79
2023-05-11T00:22:04.641Z,84.35
2023-05-11T00:27:06.098Z,84.45
2023-05-11T00:32:08.128Z,83.69
2023-05-11T00:37:08.764Z,84.70
2023-05-11T00:42:09.578Z,84.15
2023-05-11T00:47:11.685Z,84.31
2023-05-11T00:52:12.788Z,83.50
2023-05-11T00:57:13.595Z,84.71
2023-05-11T01:02:15.790Z,83.83
2023-05-11T01:07:22.360Z,84.63
2023-05-11T01:12:31.149Z,83.89
2023-05-11T01:17:44.152Z,84.94
2023-05-11T01:23:20.658Z,84.37
2023-05-11T01:28:43.720Z,84.35
2023-05-11T01:33:54.990Z,84.69
2023-05-11T01:38:59.667Z,84.90
2023-05-11T01:44:04.494Z,84.68
2023-05-11T01:49:07.866Z,85.93
2023-05-11T01:54:10.147Z,85.21
2023-05-11T01:59:14.317Z,84.73
2023-05-11T02:04:19.885Z,85.31
2023-05-11T02:09:24.103Z,84.41
2023-05-11T02:14:26.592Z,84.77
2023-05-11T02:19:30.395Z,85.04
2023-05-11T02:24:32.265Z,84.88
2023-05-11T02:29:33.458Z,84.95
2023-05-11T02:34:41.638Z,84.37
2023-05-11T02:39:47.019Z,84.98
2023-05-11T02:44:55.830Z,85.00
2023-05-11T02:50:02.443Z,85.20
2023-05-11T02:55:07.290Z,84.63
2023-05-11T03:00:11.649Z,84.16
2023-05-11T03:05:13.920Z,84.43
2023-05-11T03:10:15.617Z,83.59
2023-05-11T03:15:20.225Z,84.48
2023-05-11T03:20:25.045Z,84.03
2023-05-11T03:25:26.089Z,83.69
2023-05-11T03:30:29.098Z,83.52
2023-05-11T03:35:35.843Z,82.69
2023-05-11T03:40:39.858Z,81.96
2023-05-11T03:45:43.894Z,80.73
2023-05-11T03:50:46.285Z,80.38
2023-05-11T03:55:47.243Z,79.06
2023-05-11T04:00:48.184Z,77.70
2023-05-11T04:05:50.168Z,76.89
2023-05-11T04:10:50.886Z,76.80
2023-05-11T04:15:54.244Z,75.70
2023-05-11T04:20:56.675Z,73.58
2023-05-11T04:25:57.831Z,73.57
2023-05-11T04:30:58.762Z,72.81
2023-05-11T04:36:01.377Z,71.71
2023-05-11T04:41:04.764Z,71.96
2023-05-11T04:46:05.685Z,70.43
2023-05-11T04:51:08.158Z,70.20
2023-05-11T04:56:14.145Z,68.78
2023-05-11T05:01:16.026Z,68.51
2023-05-11T05:06:18.182Z,67.86
2023-05-11T05:11:18.884Z,66.58
2023-05-11T05:16:19.698Z,66.01
2023-05-11T05:21:21.736Z,65.17
2023-05-11T05:26:23.118Z,64.78
2023-05-11T05:31:25.473Z,64.41
2023-05-11T05:36:28.245Z,63.57
2023-05-11T05:41:29.034Z,62.38
2023-05-11T05:46:31.236Z,61.49
2023-05-11T05:51:33.733Z,60.37
2023-05-11T05:56:35.179Z,59.46
2023-05-11T06:01:36.647Z,57.58
2023-05-11T06:06:39.184Z,56.68
2023-05-11T06:11:40.185Z,55.53
2023-05-11T06:16:41.337Z,55.94
2023-05-11T06:21:45.283Z,54.86
2023-05-11T06:26:47.547Z,54.20
2023-05-11T06:31:52.856Z,54.34
2023-05-11T06:36:55.395Z,53.46
2023-05-11T06:41:57.489Z,52.58
2023-05-11T06:47:02.536Z,52.48
2023-05-11T06:52:04.885Z,51.96
2023-05-11T06:57:05.518Z,51.48
2023-05-11T07:02:06.193Z,51.71
2023-05-11T07:07:08.994Z,50.83
2023-05-11T07:12:09.641Z,50.95
2023-05-11T07:17:10.381Z,50.61
2023-05-11T07:22:14.904Z,50.40
2023-05-11T07:27:16.082Z,50.04
2023-05-11T07:32:16.733Z,49.94
2023-05-11T07:37:18.730Z,50.06
2023-05-11T07:42:19.386Z,49.35
2023-05-11T07:47:20.980Z,49.47
2023-05-11T07:52:23.072Z,48.63
2023-05-11T07:57:23.751Z,47.14
2023-05-11T08:02:24.619Z,47.46
2023-05-11T08:07:26.849Z,47.07
2023-05-11T08:12:27.595Z,46.94
2023-05-11T08:17:28.396Z,46.52
2023-05-11T08:22:30.915Z,45.74
2023-05-11T08:27:31.595Z,46.03
2023-05-11T08:32:36.217Z,45.54
2023-05-11T08:37:45.605Z,45.95
2023-05-11T08:42:49.189Z,45.62
2023-05-11T08:47:50.831Z,45.12
2023-05-11T08:52:52.977Z,43.91
2023-05-11T08:57:54.864Z,42.51
2023-05-11T09:02:56.378Z,42.34
2023-05-11T09:08:02.128Z,42.73
2023-05-11T09:13:02.850Z,42.68
2023-05-11T09:18:05.702Z,42.30
2023-05-11T09:23:08.458Z,41.75
2023-05-11T09:28:15.916Z,41.53
2023-05-11T09:33:24.586Z,41.63
2023-05-11T09:38:26.835Z,41.70
2023-05-11T09:43:28.985Z,39.65
2023-05-11T09:48:31.842Z,39.17
2023-05-11T09:53:40.836Z,37.44
2023-05-11T09:58:49.749Z,37.53
2023-05-11T10:03:58.160Z,36.00
2023-05-11T10:09:11.566Z,36.03
2023-05-11T10:14:13.773Z,34.63
2023-05-11T10:19:14.649Z,34.34
2023-05-11T10:24:19.693Z,34.44
2023-05-11T10:29:22.617Z,32.05
2023-05-11T10:34:24.564Z,32.14
2023-05-11T10:39:26.971Z,32.81
2023-05-11T10:44:51.985Z,32.88
2023-05-11T10:50:13.347Z,32.83
2023-05-11T10:55:28.689Z,32.00
2023-05-11T11:01:21.887Z,32.12
2023-05-11T11:06:24.123Z,32.45
2023-05-11T11:11:37.097Z,32.83
2023-05-11T11:16:38.936Z,32.80
2023-05-11T11:21:44.193Z,33.55
2023-05-11T11:26:50.615Z,33.38
2023-05-11T11:31:51.422Z,33.00
2023-05-11T11:37:09.653Z,31.77
2023-05-11T11:42:13.291Z,32.16
2023-05-11T11:47:16.300Z,31.42
2023-05-11T11:52:34.579Z,32.83
2023-05-11T11:57:51.090Z,32.96
2023-05-11T12:02:52.543Z,33.39
2023-05-11T12:07:54.211Z,34.14
2023-05-11T12:13:00.003Z,34.88
2023-05-11T12:18:02.848Z,34.30
2023-05-11T12:23:03.721Z,33.96
2023-05-11T12:28:05.980Z,33.92
2023-05-11T12:33:10.206Z,33.40
2023-05-11T12:38:12.440Z,34.00
2023-05-11T12:43:18.438Z,35.02
2023-05-11T12:48:19.315Z,34.67
2023-05-11T12:53:21.078Z,34.24
2023-05-11T12:58:23.210Z,33.83
2023-05-11T13:03:24.769Z,33.74
2023-05-11T13:08:25.522Z,35.10
2023-05-11T13:13:30.807Z,34.80
2023-05-11T13:18:31.531Z,34.30
2023-05-11T13:23:32.374Z,34.04
2023-05-11T13:28:35.000Z,33.84
2023-05-11T13:33:35.837Z,34.86
2023-05-11T13:38:36.522Z,31.57
2023-05-11T13:43:38.605Z,30.81
2023-05-11T13:48:39.221Z,29.67
2023-05-11T13:53:39.860Z,28.81
2023-05-11T13:58:44.895Z,29.49
2023-05-11T14:03:45.687Z,29.13
2023-05-11T14:08:46.358Z,28.71
2023-05-11T14:13:48.678Z,27.72
2023-05-11T14:18:50.568Z,27.54
2023-05-11T14:24:09.848Z,26.81
2023-05-11T14:29:13.172Z,28.04
2023-05-11T14:34:14.492Z,27.20
2023-05-11T14:39:15.207Z,26.66
2023-05-11T14:44:17.309Z,25.98
2023-05-11T14:49:18.093Z,26.46
2023-05-11T14:54:18.750Z,25.59
2023-05-11T14:59:20.904Z,25.19
2023-05-11T15:04:22.371Z,25.42
2023-05-11T15:09:24.052Z,26.47
2023-05-11T15:14:26.680Z,26.60
2023-05-11T15:19:27.345Z,27.28
2023-05-11T15:24:28.015Z,26.60
2023-05-11T15:29:30.120Z,26.69
2023-05-11T15:34:30.800Z,28.11
2023-05-11T15:39:31.500Z,26.61
2023-05-11T15:44:33.758Z,26.29
2023-05-11T15:49:34.462Z,25.78
2023-05-11T15:54:36.102Z,25.75
2023-05-11T15:59:38.500Z,26.73
2023-05-11T16:04:39.220Z,27.12
2023-05-11T16:09:39.953Z,27.55
2023-05-11T16:14:42.013Z,27.87
2023-05-11T16:19:42.683Z,27.46
2023-05-11T16:24:43.374Z,29.69
2023-05-11T16:29:45.722Z,29.13
2023-05-11T16:34:46.460Z,29.75
2023-05-11T16:39:47.173Z,29.49
2023-05-11T16:44:49.194Z,28.46
2023-05-11T16:49:49.989Z,28.58
2023-05-11T16:54:50.704Z,27.58
2023-05-11T16:59:52.833Z,28.65
2023-05-11T17:04:53.511Z,29.41
2023-05-11T17:09:57.056Z,30.09
2023-05-11T17:14:59.988Z,31.85
2023-05-11T17:20:01.299Z,31.45
2023-05-11T17:25:03.527Z,31.71
2023-05-11T17:30:06.762Z,33.68
2023-05-11T17:35:09.240Z,34.90
2023-05-11T17:40:10.719Z,33.57
2023-05-11T17:45:13.989Z,33.90
2023-05-11T17:50:14.680Z,35.63
2023-05-11T17:55:15.338Z,35.42
2023-05-11T18:00:18.144Z,36.33
2023-05-11T18:05:18.972Z,36.25
2023-05-11T18:10:19.748Z,35.76
2023-05-11T18:15:22.013Z,36.67
2023-05-11T18:20:22.765Z,37.37
2023-05-11T18:25:23.728Z,37.38
2023-05-11T18:30:25.975Z,37.29
2023-05-11T18:35:26.972Z,36.03
2023-05-11T18:40:27.766Z,36.28
2023-05-11T18:45:30.729Z,37.16
2023-05-11T18:50:31.582Z,37.36
2023-05-11T18:55:41.008Z,37.82
2023-05-11T19:00:52.499Z,38.43
2023-05-11T19:05:53.301Z,38.33
2023-05-11T19:10:54.039Z,39.19
2023-05-11T19:15:56.073Z,39.43
2023-05-11T19:20:56.731Z,39.36
2023-05-11T19:25:57.392Z,39.79
2023-05-11T19:31:03.403Z,40.32
2023-05-11T19:36:04.540Z,39.65
2023-05-11T19:41:05.352Z,39.61
2023-05-11T19:46:07.939Z,40.19
2023-05-11T19:51:08.694Z,40.26
2023-05-11T19:56:09.364Z,40.10
2023-05-11T20:01:11.465Z,40.79
2023-05-11T20:06:12.371Z,41.12
2023-05-11T20:11:13.042Z,41.21
2023-05-11T20:16:15.298Z,41.81
2023-05-11T20:21:16.684Z,41.11
2023-05-11T20:26:17.878Z,41.27
2023-05-11T20:31:21.538Z,41.14
2023-05-11T20:36:22.305Z,41.57
2023-05-11T20:41:23.254Z,41.54
2023-05-11T20:46:25.439Z,41.86
2023-05-11T20:51:26.221Z,42.05
2023-05-11T20:56:27.090Z,42.62
2023-05-11T21:01:31.193Z,42.40
2023-05-11T21:06:32.805Z,43.24
2023-05-11T21:11:33.499Z,43.66
2023-05-11T21:16:35.702Z,43.87
2023-05-11T21:21:36.777Z,44.74
2023-05-11T21:26:37.692Z,44.81
2023-05-11T21:31:39.857Z,44.65
2023-05-11T21:36:41.463Z,44.97
2023-05-11T21:41:42.443Z,45.52
2023-05-11T21:46:44.542Z,46.70
2023-05-11T21:51:45.227Z,46.30
2023-05-11T21:56:45.866Z,46.97
2023-05-11T22:01:49.203Z,47.70
2023-05-11T22:06:49.918Z,48.46
2023-05-11T22:11:50.563Z,49.11
2023-05-11T22:16:52.553Z,48.99
2023-05-11T22:21:53.444Z,49.39
2023-05-11T22:26:54.412Z,49.05
2023-05-11T22:31:56.476Z,50.15
2023-05-11T22:36:57.225Z,50.16
2023-05-11T22:41:58.175Z,49.54
2023-05-11T22:47:00.194Z,52.03
2023-05-11T22:52:00.850Z,52.63
2023-05-11T22:57:03.459Z,51.61
2023-05-11T23:02:05.752Z,51.19
2023-05-11T23:07:07.825Z,52.21
2023-05-11T23:12:09.217Z,50.76
2023-05-11T23:17:11.239Z,50.25
2023-05-11T23:22:11.959Z,52.61
2023-05-11T23:27:12.581Z,52.78
2023-05-11T23:32:15.244Z,53.96
2023-05-11T23:37:16.856Z,53.89
2023-05-11T23:42:17.561Z,55.25
2023-05-11T23:47:19.735Z,54.80
2023-05-11T23:52:20.411Z,55.03
2023-05-11T23:57:21.048Z,53.78
